createdAt,value
2019-03-16T00:00:34.671Z,48.75
2019-03-16T00:03:25.360Z,49.17
2019-03-16T00:06:15.856Z,48.58
2019-03-16T00:09:08.292Z,47.75
2019-03-16T00:11:58.826Z,48.15
2019-03-16T00:14:50.348Z,47.66
2019-03-16T00:17:40.777Z,47.28
2019-03-16T00:20:31.187Z,47.26
2019-03-16T00:23:21.272Z,47.14
2019-03-16T00:26:11.561Z,46.67
2019-03-16T00:29:01.849Z,46.57
2019-03-16T00:31:51.839Z,46.27
2019-03-16T00:34:44.679Z,46.14
2019-03-16T00:37:35.239Z,45.72
2019-03-16T00:40:25.544Z,46.47
2019-03-16T00:43:15.945Z,46.56
2019-03-16T00:46:06.741Z,46.55
2019-03-16T00:48:57.264Z,46.01
2019-03-16T00:51:47.815Z,46.47
2019-03-16T00:54:38.520Z,45.74
2019-03-16T00:57:28.945Z,45.54
2019-03-16T01:00:19.372Z,45.80
2019-03-16T01:03:09.732Z,45.53
2019-03-16T01:06:00.070Z,45.72
2019-03-16T01:08:50.654Z,45.58
2019-03-16T01:11:40.749Z,45.49
2019-03-16T01:14:30.977Z,45.52
2019-03-16T01:17:21.400Z,45.52
2019-03-16T01:20:11.730Z,45.47
2019-03-16T01:23:02.253Z,46.06
2019-03-16T01:25:52.495Z,45.49
2019-03-16T01:28:42.793Z,44.82
2019-03-16T01:31:33.113Z,44.59
2019-03-16T01:34:23.193Z,44.01
2019-03-16T01:37:13.509Z,43.90
2019-03-16T01:40:03.948Z,43.86
2019-03-16T01:42:54.208Z,43.80
2019-03-16T01:45:44.661Z,43.84
2019-03-16T01:48:35.364Z,43.46
2019-03-16T01:51:25.827Z,43.26
2019-03-16T01:54:17.293Z,43.37
2019-03-16T01:57:07.730Z,42.93
2019-03-16T01:59:57.688Z,43.71
2019-03-16T02:02:55.076Z,43.27
2019-03-16T02:05:39.892Z,43.14
2019-03-16T02:08:30.115Z,43.21
2019-03-16T02:11:20.127Z,43.69
2019-03-16T02:14:10.550Z,44.35
2019-03-16T02:17:03.586Z,44.08
2019-03-16T02:19:53.909Z,43.94
2019-03-16T02:22:43.892Z,44.39
2019-03-16T02:25:35.383Z,45.01
2019-03-16T02:28:25.845Z,45.21
2019-03-16T02:31:16.342Z,45.46
2019-03-16T02:34:06.378Z,45.89
2019-03-16T02:36:56.468Z,45.90
2019-03-16T02:39:46.778Z,45.83
2019-03-16T02:42:37.028Z,46.35
2019-03-16T02:45:27.314Z,47.48
2019-03-16T02:48:17.726Z,46.69
2019-03-16T02:51:07.974Z,46.64
2019-03-16T02:53:58.302Z,47.32
2019-03-16T02:56:48.841Z,46.54
2019-03-16T02:59:39.407Z,47.01
2019-03-16T03:02:29.438Z,46.25
2019-03-16T03:05:19.984Z,47.94
2019-03-16T03:08:10.261Z,49.42
2019-03-16T03:11:00.269Z,49.94
2019-03-16T03:13:50.557Z,49.99
2019-03-16T03:16:40.738Z,50.86
2019-03-16T03:19:30.869Z,51.80
2019-03-16T03:22:21.383Z,53.71
2019-03-16T03:25:12.047Z,53.13
2019-03-16T03:28:02.493Z,53.88
2019-03-16T03:30:52.873Z,53.59
2019-03-16T03:33:58.435Z,53.53
2019-03-16T03:36:34.512Z,52.75
2019-03-16T03:39:24.754Z,52.79
2019-03-16T03:42:15.163Z,52.13
2019-03-16T03:45:05.367Z,51.85
2019-03-16T03:47:55.619Z,50.87
2019-03-16T03:50:45.893Z,49.95
2019-03-16T03:53:36.295Z,49.39
2019-03-16T03:56:26.736Z,49.12
2019-03-16T03:59:16.953Z,49.37
2019-03-16T04:02:07.023Z,48.38
2019-03-16T04:04:57.234Z,48.88
2019-03-16T04:07:47.577Z,48.91
2019-03-16T04:10:37.845Z,48.29
2019-03-16T04:13:28.161Z,48.74
2019-03-16T04:16:18.362Z,47.93
2019-03-16T04:19:08.794Z,46.83
2019-03-16T04:21:58.920Z,47.56
2019-03-16T04:24:49.442Z,47.27
2019-03-16T04:27:39.531Z,47.13
2019-03-16T04:30:30.111Z,46.58
2019-03-16T04:33:20.625Z,46.13
2019-03-16T04:36:11.035Z,45.37
2019-03-16T04:39:01.005Z,44.79
2019-03-16T04:41:52.513Z,44.62
2019-03-16T04:44:42.730Z,45.07
2019-03-16T04:47:32.909Z,46.66
2019-03-16T04:50:23.028Z,45.63
2019-03-16T04:53:13.575Z,46.40
2019-03-16T04:56:04.054Z,45.31
2019-03-16T04:58:54.820Z,45.15
2019-03-16T05:01:45.082Z,43.99
2019-03-16T05:04:42.473Z,43.92
2019-03-16T05:07:26.709Z,42.71
2019-03-16T05:10:16.988Z,41.30
2019-03-16T05:13:07.287Z,39.88
2019-03-16T05:15:57.601Z,39.09
2019-03-16T05:18:48.254Z,38.26
2019-03-16T05:21:38.672Z,37.49
2019-03-16T05:24:29.002Z,35.81
2019-03-16T05:27:20.066Z,34.70
2019-03-16T05:30:11.719Z,32.82
2019-03-16T05:33:01.906Z,30.65
2019-03-16T05:35:52.174Z,28.29
2019-03-16T05:38:42.868Z,28.29
2019-03-16T05:41:33.146Z,27.90
2019-03-16T05:44:23.447Z,26.00
2019-03-16T05:47:13.708Z,24.43
2019-03-16T05:50:03.802Z,25.00
2019-03-16T05:52:53.955Z,25.37
2019-03-16T05:55:44.654Z,26.60
2019-03-16T05:58:36.976Z,25.29
2019-03-16T06:01:27.130Z,26.41
2019-03-16T06:04:17.547Z,26.47
2019-03-16T06:07:08.584Z,23.51
2019-03-16T06:09:59.198Z,21.63
2019-03-16T06:12:50.128Z,20.18
2019-03-16T06:15:40.315Z,19.81
2019-03-16T06:18:30.909Z,18.76
2019-03-16T06:21:21.139Z,17.93
2019-03-16T06:24:11.890Z,18.41
2019-03-16T06:27:02.741Z,18.21
2019-03-16T06:29:54.365Z,17.05
2019-03-16T06:32:45.224Z,17.70
2019-03-16T06:35:36.082Z,16.92
2019-03-16T06:38:26.954Z,16.90
2019-03-16T06:41:17.783Z,16.47
2019-03-16T06:44:08.824Z,16.13
2019-03-16T06:46:59.809Z,16.47
2019-03-16T06:49:50.737Z,16.81
2019-03-16T06:52:41.816Z,16.72
2019-03-16T06:55:32.616Z,15.65
2019-03-16T06:58:23.633Z,15.65
2019-03-16T07:01:14.082Z,15.00
2019-03-16T07:04:05.090Z,15.05
2019-03-16T07:06:55.917Z,15.83
2019-03-16T07:09:46.774Z,16.26
2019-03-16T07:12:37.324Z,16.26
2019-03-16T07:15:28.277Z,15.93
2019-03-16T07:18:18.987Z,14.71
2019-03-16T07:21:10.626Z,14.71
2019-03-16T07:24:01.541Z,13.99
2019-03-16T07:26:52.286Z,13.59
2019-03-16T07:29:42.941Z,13.15
2019-03-16T07:32:33.904Z,13.06
2019-03-16T07:35:24.529Z,12.70
2019-03-16T07:38:15.232Z,12.07
2019-03-16T07:41:05.974Z,11.53
2019-03-16T07:43:56.947Z,12.36
2019-03-16T07:46:47.843Z,12.75
2019-03-16T07:49:39.116Z,12.47
2019-03-16T07:52:29.479Z,12.22
2019-03-16T07:55:20.111Z,11.54
2019-03-16T07:58:10.601Z,12.68
2019-03-16T08:01:03.361Z,13.59
2019-03-16T08:03:53.084Z,12.33
2019-03-16T08:06:44.069Z,12.24
2019-03-16T08:09:34.954Z,12.89
2019-03-16T08:12:25.803Z,13.53
2019-03-16T08:15:16.798Z,14.88
2019-03-16T08:18:08.152Z,17.03
2019-03-16T08:20:59.121Z,16.40
2019-03-16T08:23:49.909Z,17.41
2019-03-16T08:26:40.776Z,18.09
2019-03-16T08:29:31.467Z,20.21
2019-03-16T08:32:25.220Z,22.33
2019-03-16T08:35:14.282Z,23.13
2019-03-16T08:38:04.902Z,23.33
2019-03-16T08:40:55.733Z,25.37
2019-03-16T08:43:46.485Z,25.50
2019-03-16T08:46:37.482Z,25.45
2019-03-16T08:49:28.367Z,27.33
2019-03-16T08:52:19.580Z,29.11
2019-03-16T08:55:10.654Z,25.51
2019-03-16T08:58:06.365Z,24.13
2019-03-16T09:00:53.600Z,23.57
2019-03-16T09:03:44.165Z,22.76
2019-03-16T09:06:34.539Z,21.75
2019-03-16T09:09:27.788Z,21.96
2019-03-16T09:12:17.989Z,22.41
2019-03-16T09:15:10.441Z,22.79
2019-03-16T09:18:03.135Z,21.98
2019-03-16T09:20:54.156Z,21.32
2019-03-16T09:23:44.639Z,20.54
2019-03-16T09:26:35.573Z,19.17
2019-03-16T09:29:26.434Z,18.88
2019-03-16T09:32:19.222Z,19.88
2019-03-16T09:35:09.462Z,19.73
2019-03-16T09:38:05.245Z,25.60
2019-03-16T09:40:54.875Z,26.96
2019-03-16T09:43:45.620Z,30.81
2019-03-16T09:46:35.782Z,32.20
2019-03-16T09:49:26.518Z,31.53
2019-03-16T09:52:16.773Z,32.71
2019-03-16T09:55:07.116Z,34.50
2019-03-16T09:57:57.254Z,31.81
2019-03-16T10:00:47.632Z,29.83
2019-03-16T10:03:37.688Z,29.76
2019-03-16T10:06:27.925Z,29.79
2019-03-16T10:09:18.265Z,29.54
2019-03-16T10:12:08.557Z,29.97
2019-03-16T10:14:58.681Z,31.84
2019-03-16T10:17:48.978Z,31.00
2019-03-16T10:20:39.209Z,31.00
2019-03-16T10:23:29.622Z,30.03
2019-03-16T10:26:19.762Z,28.91
2019-03-16T10:29:10.086Z,28.91
2019-03-16T10:32:00.629Z,30.79
2019-03-16T10:34:50.900Z,31.53
2019-03-16T10:37:41.076Z,34.05
2019-03-16T10:40:32.552Z,34.04
2019-03-16T10:43:22.849Z,31.71
2019-03-16T10:46:13.668Z,35.15
2019-03-16T10:49:03.942Z,35.01
2019-03-16T10:51:54.203Z,36.39
2019-03-16T10:54:44.597Z,35.83
2019-03-16T10:57:34.838Z,35.63
2019-03-16T11:00:24.929Z,36.03
2019-03-16T11:03:15.132Z,35.09
2019-03-16T11:06:05.781Z,36.28
2019-03-16T11:08:56.238Z,34.67
2019-03-16T11:11:46.281Z,36.16
2019-03-16T11:14:36.234Z,38.33
2019-03-16T11:17:26.544Z,37.27
2019-03-16T11:20:16.669Z,37.57
2019-03-16T11:23:06.921Z,37.37
2019-03-16T11:25:57.323Z,36.64
2019-03-16T11:28:47.623Z,36.90
2019-03-16T11:31:38.164Z,34.93
2019-03-16T11:34:28.364Z,34.26
2019-03-16T11:37:18.781Z,32.69
2019-03-16T11:40:11.371Z,32.85
2019-03-16T11:43:02.020Z,32.85
2019-03-16T11:45:52.210Z,34.69
2019-03-16T11:48:42.516Z,34.64
2019-03-16T11:51:33.040Z,34.64
2019-03-16T11:54:23.363Z,32.46
2019-03-16T11:57:13.559Z,32.36
2019-03-16T12:00:03.594Z,32.36
2019-03-16T12:02:54.022Z,32.58
2019-03-16T12:05:44.497Z,32.73
2019-03-16T12:08:34.882Z,32.73
2019-03-16T12:11:26.192Z,33.43
2019-03-16T12:14:16.541Z,32.53
2019-03-16T12:17:06.810Z,33.40
2019-03-16T12:19:56.898Z,31.37
2019-03-16T12:22:47.241Z,32.23
2019-03-16T12:25:37.382Z,31.16
2019-03-16T12:28:28.063Z,31.07
2019-03-16T12:31:18.266Z,30.46
2019-03-16T12:34:08.708Z,31.27
2019-03-16T12:36:59.061Z,31.48
2019-03-16T12:39:49.996Z,30.70
2019-03-16T12:42:40.270Z,31.89
2019-03-16T12:45:30.764Z,32.32
2019-03-16T12:48:20.973Z,31.98
2019-03-16T12:51:11.324Z,32.80
2019-03-16T12:54:01.553Z,32.32
2019-03-16T12:56:51.906Z,33.04
2019-03-16T12:59:46.882Z,31.37
2019-03-16T13:02:36.201Z,30.91
2019-03-16T13:05:26.492Z,30.97
2019-03-16T13:08:16.975Z,31.67
2019-03-16T13:11:07.316Z,31.56
2019-03-16T13:13:59.204Z,30.65
2019-03-16T13:16:49.662Z,31.55
2019-03-16T13:19:40.248Z,30.26
2019-03-16T13:22:30.605Z,30.80
2019-03-16T13:25:20.679Z,29.97
2019-03-16T13:28:10.688Z,27.70
2019-03-16T13:31:00.925Z,28.53
2019-03-16T13:33:53.338Z,28.90
2019-03-16T13:36:43.103Z,28.38
2019-03-16T13:39:33.371Z,28.81
2019-03-16T13:42:23.777Z,28.61
2019-03-16T13:45:14.062Z,29.06
2019-03-16T13:48:04.527Z,30.08
2019-03-16T13:50:54.975Z,30.18
2019-03-16T13:53:45.473Z,29.90
2019-03-16T13:56:35.700Z,29.96
2019-03-16T13:59:25.991Z,30.10
2019-03-16T14:02:16.285Z,30.75
2019-03-16T14:05:07.072Z,30.36
2019-03-16T14:07:58.671Z,31.02
2019-03-16T14:10:49.348Z,30.24
2019-03-16T14:13:39.893Z,30.70
2019-03-16T14:16:30.141Z,30.14
2019-03-16T14:19:22.646Z,30.28
2019-03-16T14:22:12.986Z,30.15
2019-03-16T14:25:03.438Z,29.63
2019-03-16T14:27:54.333Z,31.54
2019-03-16T14:30:45.300Z,41.71
2019-03-16T14:33:35.488Z,46.00
2019-03-16T14:36:26.224Z,54.18
2019-03-16T14:39:16.632Z,47.06
2019-03-16T14:42:06.657Z,44.94
2019-03-16T14:44:56.911Z,45.25
2019-03-16T14:47:46.943Z,45.80
2019-03-16T14:50:37.463Z,50.30
2019-03-16T14:53:27.711Z,47.93
2019-03-16T14:56:18.306Z,46.71
2019-03-16T14:59:08.722Z,47.34
2019-03-16T15:01:59.185Z,44.85
2019-03-16T15:04:49.506Z,44.64
2019-03-16T15:07:41.578Z,44.50
2019-03-16T15:10:31.705Z,43.73
2019-03-16T15:13:22.011Z,43.99
2019-03-16T15:16:12.081Z,42.67
2019-03-16T15:19:02.335Z,42.39
2019-03-16T15:21:52.910Z,42.22
2019-03-16T15:24:43.295Z,42.81
2019-03-16T15:27:33.657Z,43.20
2019-03-16T15:30:24.039Z,43.87
2019-03-16T15:33:14.573Z,44.46
2019-03-16T15:36:04.876Z,44.65
2019-03-16T15:38:54.912Z,44.72
2019-03-16T15:41:45.355Z,44.70
2019-03-16T15:44:38.036Z,44.21
2019-03-16T15:47:29.901Z,43.87
2019-03-16T15:50:19.716Z,43.78
2019-03-16T15:53:09.826Z,42.33
2019-03-16T15:56:00.148Z,43.16
2019-03-16T15:58:50.446Z,44.08
2019-03-16T16:01:40.869Z,43.14
2019-03-16T16:04:31.492Z,44.39
2019-03-16T16:07:21.962Z,45.03
2019-03-16T16:10:12.948Z,46.44
2019-03-16T16:13:03.173Z,47.36
2019-03-16T16:15:53.279Z,46.96
2019-03-16T16:18:43.669Z,45.59
2019-03-16T16:21:34.054Z,47.32
2019-03-16T16:24:24.308Z,45.62
2019-03-16T16:27:14.620Z,43.98
2019-03-16T16:30:05.858Z,43.74
2019-03-16T16:32:56.158Z,42.87
2019-03-16T16:35:47.023Z,43.03
2019-03-16T16:38:38.158Z,43.81
2019-03-16T16:41:28.588Z,43.12
2019-03-16T16:44:18.627Z,44.69
2019-03-16T16:47:08.905Z,44.04
2019-03-16T16:49:59.103Z,44.34
2019-03-16T16:52:49.720Z,44.98
2019-03-16T16:55:40.086Z,43.94
2019-03-16T16:58:30.710Z,42.80
2019-03-16T17:01:29.229Z,42.87
2019-03-16T17:04:13.092Z,42.29
2019-03-16T17:07:03.851Z,42.75
2019-03-16T17:09:54.300Z,43.31
2019-03-16T17:12:45.005Z,43.78
2019-03-16T17:15:35.407Z,43.84
2019-03-16T17:18:25.775Z,43.66
2019-03-16T17:21:15.803Z,43.43
2019-03-16T17:24:06.103Z,43.16
2019-03-16T17:26:56.396Z,43.26
2019-03-16T17:29:46.743Z,42.10
2019-03-16T17:32:37.036Z,42.22
2019-03-16T17:35:29.047Z,42.04
2019-03-16T17:38:21.842Z,41.51
2019-03-16T17:41:12.221Z,41.18
2019-03-16T17:44:02.549Z,40.68
2019-03-16T17:46:52.955Z,40.27
2019-03-16T17:49:43.169Z,40.08
2019-03-16T17:52:33.589Z,40.05
2019-03-16T17:55:23.800Z,40.05
2019-03-16T17:58:13.856Z,40.14
2019-03-16T18:01:04.194Z,39.94
2019-03-16T18:03:55.121Z,39.76
2019-03-16T18:06:45.525Z,39.65
2019-03-16T18:09:35.689Z,39.77
2019-03-16T18:12:25.963Z,39.85
2019-03-16T18:15:16.156Z,39.95
2019-03-16T18:18:06.610Z,40.11
2019-03-16T18:20:56.983Z,40.03
2019-03-16T18:23:47.241Z,40.02
2019-03-16T18:26:37.763Z,40.55
2019-03-16T18:29:27.974Z,40.63
2019-03-16T18:32:18.269Z,40.18
2019-03-16T18:35:08.936Z,39.63
2019-03-16T18:37:59.734Z,39.63
2019-03-16T18:40:50.157Z,39.86
2019-03-16T18:43:40.333Z,40.11
2019-03-16T18:46:30.728Z,40.66
2019-03-16T18:49:21.309Z,40.52
2019-03-16T18:52:11.725Z,40.87
2019-03-16T18:55:01.765Z,41.58
2019-03-16T18:57:52.377Z,41.37
2019-03-16T19:00:44.682Z,40.75
2019-03-16T19:03:35.028Z,40.91
2019-03-16T19:06:25.343Z,40.59
2019-03-16T19:09:15.541Z,40.77
2019-03-16T19:12:06.021Z,40.71
2019-03-16T19:14:56.022Z,40.80
2019-03-16T19:17:58.124Z,40.55
2019-03-16T19:20:38.496Z,40.87
2019-03-16T19:23:28.996Z,41.05
2019-03-16T19:26:19.327Z,39.50
2019-03-16T19:29:09.869Z,39.19
2019-03-16T19:32:00.119Z,38.72
2019-03-16T19:34:51.721Z,39.13
2019-03-16T19:37:41.961Z,40.53
2019-03-16T19:40:32.336Z,39.54
2019-03-16T19:43:22.572Z,40.26
2019-03-16T19:46:13.216Z,39.90
2019-03-16T19:49:03.143Z,39.63
2019-03-16T19:51:53.688Z,39.41
2019-03-16T19:54:43.906Z,37.74
2019-03-16T19:57:34.525Z,37.19
2019-03-16T20:00:24.585Z,37.41
2019-03-16T20:03:14.930Z,37.62
2019-03-16T20:06:05.297Z,38.43
2019-03-16T20:08:56.106Z,37.03
2019-03-16T20:11:46.274Z,38.68
2019-03-16T20:14:36.633Z,39.22
2019-03-16T20:17:26.609Z,38.91
2019-03-16T20:20:16.798Z,40.04
2019-03-16T20:23:06.903Z,40.29
2019-03-16T20:25:57.842Z,39.73
2019-03-16T20:28:48.023Z,40.25
2019-03-16T20:31:46.799Z,41.03
2019-03-16T20:34:32.240Z,44.41
2019-03-16T20:37:22.825Z,45.19
2019-03-16T20:40:12.811Z,46.85
2019-03-16T20:43:03.208Z,47.45
2019-03-16T20:45:53.203Z,47.84
2019-03-16T20:48:43.518Z,48.78
2019-03-16T20:51:33.486Z,49.25
2019-03-16T20:54:23.946Z,49.74
2019-03-16T20:57:13.928Z,49.78
2019-03-16T21:00:05.083Z,50.69
2019-03-16T21:02:55.571Z,52.81
2019-03-16T21:05:45.877Z,54.49
2019-03-16T21:08:36.154Z,57.07
2019-03-16T21:11:26.808Z,56.58
2019-03-16T21:14:17.069Z,61.17
2019-03-16T21:17:07.331Z,65.47
2019-03-16T21:19:57.626Z,71.55
2019-03-16T21:22:47.795Z,72.72
2019-03-16T21:25:38.050Z,70.00
2019-03-16T21:28:28.510Z,71.16
2019-03-16T21:31:18.900Z,71.88
2019-03-16T21:34:09.306Z,61.64
2019-03-16T21:36:59.579Z,54.68
2019-03-16T21:39:50.242Z,52.62
2019-03-16T21:42:44.592Z,51.37
2019-03-16T21:45:38.477Z,53.35
2019-03-16T21:48:28.620Z,55.09
2019-03-16T21:51:19.177Z,55.14
2019-03-16T21:54:12.282Z,54.90
2019-03-16T21:57:03.298Z,55.93
2019-03-16T21:59:54.294Z,60.23
2019-03-16T22:02:44.337Z,61.60
2019-03-16T22:05:34.873Z,67.42
2019-03-16T22:08:25.141Z,66.34
2019-03-16T22:11:15.178Z,62.98
2019-03-16T22:14:05.354Z,62.59
2019-03-16T22:16:55.689Z,62.02
2019-03-16T22:19:46.521Z,63.91
2019-03-16T22:22:36.934Z,67.66
2019-03-16T22:25:27.212Z,65.29
2019-03-16T22:28:17.162Z,66.09
2019-03-16T22:31:07.451Z,70.12
2019-03-16T22:33:57.674Z,69.16
2019-03-16T22:36:48.059Z,67.40
2019-03-16T22:39:38.362Z,64.97
2019-03-16T22:42:28.516Z,60.78
2019-03-16T22:45:18.753Z,59.61
2019-03-16T22:48:09.323Z,54.10
2019-03-16T22:50:59.760Z,51.92
2019-03-16T22:53:50.169Z,54.40
2019-03-16T22:56:40.558Z,53.92
2019-03-16T22:59:30.889Z,52.89
2019-03-16T23:02:21.136Z,51.97
2019-03-16T23:05:11.908Z,51.20
2019-03-16T23:08:02.505Z,50.98
2019-03-16T23:10:52.831Z,50.76
2019-03-16T23:13:42.900Z,50.44
2019-03-16T23:16:33.177Z,51.14
2019-03-16T23:19:23.440Z,51.39
2019-03-16T23:22:13.711Z,51.91
2019-03-16T23:25:04.352Z,51.42
2019-03-16T23:27:54.626Z,48.76
2019-03-16T23:30:45.208Z,46.53
2019-03-16T23:33:35.487Z,45.70
2019-03-16T23:36:25.719Z,45.99
2019-03-16T23:39:16.025Z,45.60
2019-03-16T23:42:06.382Z,44.43
2019-03-16T23:44:57.919Z,43.88
2019-03-16T23:47:48.108Z,43.95
2019-03-16T23:50:38.486Z,44.15
2019-03-16T23:53:28.858Z,44.27
2019-03-16T23:56:19.021Z,44.84
2019-03-16T23:59:09.230Z,44.17
